D/T METAR WX W/SPE G/SPE TEMP DEWP FEEL
25/05/22 00:50 EGXP 242350Z AUTO 24009KT 9999 // BKN040/// 09/06 Q1009 10.4mph 9°C 6°C 8.6°C
24/05/22 23:50 EGXP 242250Z AUTO 21006KT 9999 // NCD 09/06 Q1008 6.9mph 9°C 6°C 8.6°C
24/05/22 22:50 EGXP 242150Z AUTO 24007KT 9999 // NCD 07/04 Q1008 8.1mph 7°C 4°C 6.0°C
24/05/22 21:50 EGXP 242050Z AUTO 25005KT 9999 // NCD 09/05 Q1008 5.8mph 9°C 5°C 8.3°C
24/05/22 20:50 EGXP 241950Z AUTO 27005KT 9999 // NCD 12/05 Q1007 5.8mph 12°C 5°C 11.3°C
24/05/22 19:50 EGXP 241850Z AUTO 29011KT 9999 // FEW060/// 15/05 Q1007 12.7mph 15°C 5°C 14.3°C
24/05/22 18:50 EGXP 241750Z AUTO 29010KT 9999 // BKN060/// 15/05 Q1006 11.5mph 15°C 5°C 14.3°C
24/05/22 17:50 EGXP 241650Z AUTO 29014KT 9999 // FEW070/// 16/06 Q1006 16.1mph 16°C 6°C 15.6°C
24/05/22 16:50 EGXP 241550Z AUTO 29016KT 9999 // BKN070/// 16/05 Q1005 18.4mph 16°C 5°C 15.3°C
24/05/22 15:50 EGXP 241450Z AUTO 28016KT 9999 // FEW045/// BKN070/// 15/06 Q1005 18.4mph 15°C 6°C 14.6°C
24/05/22 14:50 EGXP 241350Z AUTO 30013KT 9999 // NCD 15/07 Q1004 15.0mph 15°C 7°C 15.0°C
24/05/22 13:50 EGXP 241250Z AUTO 28009KT 9999 // FEW050/// 13/08 Q1004 10.4mph 13°C 8°C 13.4°C
24/05/22 12:50 EGXP 241150Z AUTO 26013KT 9999 // BKN050/// 13/07 Q1004 15.0mph 13°C 7°C 13.0°C
24/05/22 11:50 EGXP 241050Z AUTO 28012KT 9999 // FEW037/// SCT043/// BKN060/// 14/06 Q1003 13.8mph 14°C 6°C 13.6°C
24/05/22 10:50 EGXP 240950Z AUTO 29012KT 9999 // BKN050/// 14/07 Q1002 13.8mph 14°C 7°C 14.0°C
24/05/22 09:50 EGXP 240850Z AUTO 29012KT 9999 // FEW026/// 15/07 Q1002 13.8mph 15°C 7°C 15.0°C
24/05/22 08:50 EGXP 240750Z AUTO 29013KT 9999 // SCT022/// 13/08 Q1001 15.0mph 13°C 8°C 13.4°C
24/05/22 07:50 EGXP 240650Z AUTO 28011KT 9999 // FEW050/// 12/09 Q1001 12.7mph 12°C 9°C 12.8°C
24/05/22 06:50 EGXP 240550Z AUTO 27007KT 9999 // FEW060/// 11/09 Q1000 8.1mph 11°C 9°C 11.8°C
24/05/22 05:50 EGXP 240450Z AUTO 26006KT 9999 // BKN050/// 10/09 Q0999 6.9mph 10°C 9°C 10.8°C
24/05/22 04:50 EGXP 240350Z AUTO 25004KT 9999 // SCT029/// BKN039/// BKN060/// 10/09 Q0999 4.6mph 10°C 9°C 10.8°C
24/05/22 03:50 EGXP 240250Z AUTO 27006KT 7000 // BKN042/// 10/09 Q0999 6.9mph 10°C 9°C 10.8°C
24/05/22 02:50 EGXP 240150Z AUTO 29006KT 9999 // FEW030/// BKN039/// 10/09 Q0999 6.9mph 10°C 9°C 10.8°C
24/05/22 01:50 EGXP 240050Z AUTO 27007KT 9999 // FEW030/// BKN045/// 10/09 Q0999 8.1mph 10°C 9°C 10.8°C
24/05/22 00:50 EGXP 232350Z AUTO 29009KT 9999 // SCT023/// BKN047/// 10/09 Q0999 10.4mph 10°C 9°C 10.8°C
23/05/22 23:50 EGXP 232250Z AUTO 30006KT 9999 // BKN029/// BKN050/// 11/09 Q0999 6.9mph 11°C 9°C 11.8°C
23/05/22 22:50 EGXP 232150Z AUTO 30005KT 9999 // OVC050/// 11/10 Q0998 5.8mph 11°C 10°C 12.3°C
23/05/22 21:50 EGXP 232050Z AUTO 32006KT 9999 // FEW030/// BKN050/// 11/09 Q0999 6.9mph 11°C 9°C 11.8°C
23/05/22 20:50 EGXP 231950Z AUTO 28005KT 9999 // FEW030/// BKN050/// 12/08 Q0998 5.8mph 12°C 8°C 12.4°C
23/05/22 19:50 EGXP 231850Z AUTO 19004KT 9999 // OVC050/// 13/11 Q0998 4.6mph 13°C 11°C 14.8°C
23/05/22 18:50 EGXP 231750Z AUTO 28005KT 9999 // FEW037/// BKN050/// 13/11 Q0998 5.8mph 13°C 11°C 14.8°C
23/05/22 17:50 EGXP 231650Z AUTO 30008KT 9999 // BKN035/// SCT043/// 14/09 Q0998 9.2mph 14°C 9°C 14.8°C
23/05/22 16:50 EGXP 231550Z AUTO 28007KT 9999 // FEW043/// SCT060/// BKN150/// 17/07 Q0998 8.1mph 17°C 7°C 17.0°C
23/05/22 15:50 EGXP 231450Z AUTO 24007KT 9999 // SCT047/// BKN110/// 16/07 Q0999 8.1mph 16°C 7°C 16.0°C
23/05/22 14:50 EGXP 231350Z AUTO 28004KT 9999 // FEW060/// BKN110/// 17/08 Q0999 4.6mph 17°C 8°C 17.4°C
23/05/22 13:50 EGXP 231250Z AUTO 29007KT 9999 // FEW041/// BKN110/// 17/08 Q0999 8.1mph 17°C 8°C 17.4°C
23/05/22 12:50 EGXP 231150Z AUTO 26006KT 9999 // FEW036/// SCT110/// 17/08 Q1000 6.9mph 17°C 8°C 17.4°C
23/05/22 11:50 EGXP 231050Z AUTO 27006KT 9999 // FEW028/// 17/09 Q1000 6.9mph 17°C 9°C 17.8°C
23/05/22 10:50 EGXP 230950Z AUTO 24006KT 9999 // FEW060/// 16/09 Q1001 6.9mph 16°C 9°C 16.8°C
23/05/22 09:50 EGXP 230850Z AUTO 26008KT 9999 // OVC050/// 15/10 Q1001 9.2mph 15°C 10°C 16.3°C
23/05/22 08:50 EGXP 230750Z AUTO 26007KT 9999 // BKN050/// 14/11 Q1002 8.1mph 14°C 11°C 15.8°C
23/05/22 07:50 EGXP 230650Z AUTO 26006KT 9999 // FEW022/// BKN045/// 14/11 Q1002 6.9mph 14°C 11°C 15.8°C
23/05/22 06:50 EGXP 230550Z AUTO 27006KT 9999 // BKN044/// BKN050/// 13/11 Q1002 6.9mph 13°C 11°C 14.8°C
23/05/22 05:50 EGXP 230450Z AUTO 28006KT 9999 // FEW030/// BKN037/// BKN044/// 13/11 Q1003 6.9mph 13°C 11°C 14.8°C
23/05/22 04:50 EGXP 230350Z AUTO 24003KT 9999 // SCT029/// OVC050/// 13/11 Q1003 3.5mph 13°C 11°C 14.8°C
23/05/22 03:50 EGXP 230250Z AUTO 27005KT 9999 // BKN050/// 13/11 Q1004 5.8mph 13°C 11°C 14.8°C
23/05/22 02:50 EGXP 230150Z AUTO 26007KT 9999 // FEW041/// BKN050/// 14/11 Q1004 8.1mph 14°C 11°C 15.8°C
23/05/22 01:50 EGXP 230050Z AUTO 24005KT 9999 // SCT042/// BKN050/// 15/12 Q1005 5.8mph 15°C 12°C 17.3°C
23/05/22 00:50 EGXP 222350Z AUTO 21004KT 9999 // OVC060/// 16/12 Q1005 4.6mph 16°C 12°C 18.3°C
22/05/22 23:50 EGXP 222250Z AUTO 22005KT 9999 // BKN060/// BKN150/// 16/12 Q1005 5.8mph 16°C 12°C 18.3°C
22/05/22 22:50 EGXP 222150Z AUTO 23005KT 9999 // SCT060/// OVC140/// 16/11 Q1006 5.8mph 16°C 11°C 17.8°C
22/05/22 21:50 EGXP 222050Z AUTO 22006KT 9999 // SCT070/// OVC130/// 17/11 Q1006 6.9mph 17°C 11°C 18.8°C
22/05/22 20:50 EGXP 221950Z AUTO 20006KT 9999 // SCT060/// OVC140/// 18/11 Q1007 6.9mph 18°C 11°C 19.8°C
22/05/22 19:50 EGXP 221850Z AUTO 20008KT 9999 // BKN060/// BKN170/// 19/11 Q1007 9.2mph 19°C 11°C 20.8°C
22/05/22 18:50 EGXP 221750Z AUTO 21011KT 9999 // OVC050/// 20/11 Q1007 12.7mph 20°C 11°C 21.8°C
22/05/22 17:50 EGXP 221650Z AUTO 21012KT 9999 // SCT060/// SCT170/// 20/11 Q1008 13.8mph 20°C 11°C 21.8°C
22/05/22 16:50 EGXP 221550Z AUTO 22011KT 9999 // FEW044/// BKN050/// 20/10 Q1008 12.7mph 20°C 10°C 21.3°C
22/05/22 14:50 EGXP 221350Z AUTO 22013KT 9999 // NCD 20/10 Q1010 15.0mph 20°C 10°C 21.3°C
22/05/22 13:50 EGXP 221250Z AUTO 22012KT 9999 // FEW036/// SCT045/// 20/10 Q1010 13.8mph 20°C 10°C 21.3°C
22/05/22 12:50 EGXP 221150Z AUTO 21010KT 9999 // FEW034/// 19/10 Q1011 11.5mph 19°C 10°C 20.3°C
22/05/22 11:50 EGXP 221050Z AUTO 24012KT 9999 // FEW030/// 18/10 Q1012 13.8mph 18°C 10°C 19.3°C
22/05/22 10:50 EGXP 220950Z AUTO 23014KT 9999 // SCT041/// 18/10 Q1013 16.1mph 18°C 10°C 19.3°C
22/05/22 09:50 EGXP 220850Z AUTO 23012KT 9999 // NCD 16/10 Q1013 13.8mph 16°C 10°C 17.3°C
22/05/22 08:50 EGXP 220750Z AUTO 22010KT 9999 // FEW044/// 15/10 Q1014 11.5mph 15°C 10°C 16.3°C
22/05/22 07:50 EGXP 220650Z AUTO 22011KT 9999 // SCT043/// BKN060/// 13/08 Q1014 12.7mph 13°C 8°C 13.4°C
22/05/22 06:50 EGXP 220550Z AUTO 20008KT 9999 // FEW090/// 12/08 Q1014 9.2mph 12°C 8°C 12.4°C
22/05/22 05:50 EGXP 220450Z AUTO 21007KT 9999 // FEW060/// 11/07 Q1014 8.1mph 11°C 7°C 11.0°C
22/05/22 04:50 EGXP 220350Z AUTO 21006KT 9999 // FEW060/// 10/08 Q1015 6.9mph 10°C 8°C 10.4°C
22/05/22 03:50 EGXP 220250Z AUTO 22009KT 9999 // FEW220/// 11/08 Q1015 10.4mph 11°C 8°C 11.4°C
22/05/22 02:50 EGXP 220150Z AUTO 21006KT 9999 // FEW210/// 11/08 Q1016 6.9mph 11°C 8°C 11.4°C
22/05/22 01:50 EGXP 220050Z AUTO 20007KT 9999 // FEW050/// 12/08 Q1016 8.1mph 12°C 8°C 12.4°C
22/05/22 00:50 EGXP 212350Z AUTO 20006KT 9999 // FEW044/// SCT050/// 13/08 Q1017 6.9mph 13°C 8°C 13.4°C
21/05/22 23:50 EGXP 212250Z AUTO 20006KT 9999 // NCD 13/08 Q1017 6.9mph 13°C 8°C 13.4°C
21/05/22 22:50 EGXP 212150Z AUTO 21005KT 9999 // FEW060/// 13/08 Q1017 5.8mph 13°C 8°C 13.4°C
21/05/22 21:50 EGXP 212050Z AUTO 22005KT 9999 // FEW070/// 13/08 Q1017 5.8mph 13°C 8°C 13.4°C
21/05/22 20:50 EGXP 211950Z AUTO 23005KT 9999 // OVC060/// 15/09 Q1017 5.8mph 15°C 9°C 15.8°C
21/05/22 19:50 EGXP 211850Z AUTO 22006KT 9999 // BKN060/// 16/08 Q1017 6.9mph 16°C 8°C 16.4°C
21/05/22 18:50 EGXP 211750Z AUTO 23009KT 9999 // FEW060/// 16/08 Q1017 10.4mph 16°C 8°C 16.4°C
21/05/22 17:50 EGXP 211650Z AUTO 24010KT 9999 // FEW060/// 18/08 Q1017 11.5mph 18°C 8°C 18.4°C
21/05/22 16:50 EGXP 211550Z AUTO 26010KT 9999 // FEW041/// BKN050/// 19/09 Q1018 11.5mph 19°C 9°C 19.8°C
21/05/22 15:50 EGXP 211450Z AUTO 25007KT 9999 // FEW038/// BKN050/// 17/08 Q1018 8.1mph 17°C 8°C 17.4°C
21/05/22 14:50 EGXP 211350Z AUTO 26009KT 9999 // FEW034/// BKN039/// 17/09 Q1019 10.4mph 17°C 9°C 17.8°C
21/05/22 13:50 EGXP 211250Z AUTO 25012KT 9999 // SCT032/// BKN039/// 17/08 Q1019 13.8mph 17°C 8°C 17.4°C
21/05/22 12:50 EGXP 211150Z AUTO 25011KT 9999 // SCT029/// SCT040/// 16/09 Q1019 12.7mph 16°C 9°C 16.8°C
21/05/22 11:50 EGXP 211050Z AUTO 25011KT 9999 // FEW025/// SCT029/// BKN110/// 15/08 Q1019 12.7mph 15°C 8°C 15.4°C
21/05/22 10:50 EGXP 210950Z AUTO 26011KT 9999 // FEW025/// BKN140/// 14/08 Q1019 12.7mph 14°C 8°C 14.4°C
21/05/22 09:50 EGXP 210850Z AUTO 25011KT 9999 // SCT140/// 13/09 Q1019 12.7mph 13°C 9°C 13.8°C
21/05/22 08:50 EGXP 210750Z AUTO 24011KT 9999 // OVC150/// 13/09 Q1019 12.7mph 13°C 9°C 13.8°C
21/05/22 07:50 EGXP 210650Z AUTO 25012KT 9999 // BKN160/// 12/09 Q1018 13.8mph 12°C 9°C 12.8°C
21/05/22 06:50 EGXP 210550Z AUTO 25011KT 9999 // FEW200/// 11/09 Q1018 12.7mph 11°C 9°C 11.8°C
21/05/22 05:50 EGXP 210450Z AUTO 24007KT 9999 // FEW210/// 10/09 Q1017 8.1mph 10°C 9°C 10.8°C
21/05/22 04:50 EGXP 210350Z AUTO 25008KT 9999 // SCT210/// 09/08 Q1017 9.2mph 9°C 8°C 9.4°C
21/05/22 03:50 EGXP 210250Z AUTO 24010KT 9999 // NCD 10/09 Q1016 11.5mph 10°C 9°C 10.8°C
21/05/22 02:50 EGXP 210150Z AUTO 24008KT 9999 // FEW060/// 10/09 Q1016 9.2mph 10°C 9°C 10.8°C
21/05/22 01:50 EGXP 210050Z AUTO 24010KT 9999 // BKN060/// 11/09 Q1016 11.5mph 11°C 9°C 11.8°C
21/05/22 00:50 EGXP 202350Z AUTO 24009KT 9999 // SCT060/// 11/09 Q1016 10.4mph 11°C 9°C 11.8°C